createdAt,value
2023-04-16T00:02:14.727Z,20.52
2023-04-16T00:04:42.356Z,24.08
2023-04-16T00:07:09.585Z,24.65
2023-04-16T00:09:36.944Z,23.13
2023-04-16T00:12:04.626Z,24.27
2023-04-16T00:14:32.184Z,25.75
2023-04-16T00:16:59.433Z,20.20
2023-04-16T00:19:26.657Z,31.00
2023-04-16T00:21:54.187Z,22.77
2023-04-16T00:24:21.424Z,22.45
2023-04-16T00:26:48.784Z,16.90
2023-04-16T00:29:16.218Z,18.02
2023-04-16T00:31:43.684Z,29.40
2023-04-16T00:34:11.061Z,50.58
2023-04-16T00:36:38.982Z,25.90
2023-04-16T00:39:06.601Z,34.08
2023-04-16T00:41:33.869Z,27.02
2023-04-16T00:44:01.303Z,19.08
2023-04-16T00:46:28.461Z,30.10
2023-04-16T00:48:56.442Z,69.35
2023-04-16T00:51:24.160Z,36.47
2023-04-16T00:53:51.709Z,24.80
2023-04-16T00:56:20.604Z,17.55
2023-04-16T00:58:49.001Z,22.52
2023-04-16T01:01:16.569Z,26.17
2023-04-16T01:03:46.103Z,30.23
2023-04-16T01:06:14.099Z,27.20
2023-04-16T01:08:41.353Z,20.00
2023-04-16T01:11:10.322Z,22.15
2023-04-16T01:13:39.811Z,22.33
2023-04-16T01:16:08.968Z,26.10
2023-04-16T01:18:37.095Z,33.72
2023-04-16T01:21:05.385Z,30.05
2023-04-16T01:23:33.382Z,29.15
2023-04-16T01:26:00.805Z,33.95
2023-04-16T01:28:28.184Z,32.28
2023-04-16T01:30:55.673Z,40.00
2023-04-16T01:33:38.815Z,32.75
2023-04-16T01:36:07.738Z,29.48
2023-04-16T01:38:35.050Z,25.02
2023-04-16T01:41:02.404Z,30.33
2023-04-16T01:43:29.588Z,39.70
2023-04-16T01:46:21.127Z,34.10
2023-04-16T01:51:16.469Z,29.23
2023-04-16T01:53:43.894Z,29.27
2023-04-16T01:56:11.245Z,26.10
2023-04-16T01:58:38.966Z,26.83
2023-04-16T02:01:06.375Z,34.55
2023-04-16T02:03:34.300Z,28.38
2023-04-16T02:06:02.113Z,35.20
2023-04-16T02:08:29.410Z,28.88
2023-04-16T02:10:57.785Z,26.02
2023-04-16T02:13:26.484Z,33.05
2023-04-16T02:15:54.531Z,37.65
2023-04-16T02:18:34.184Z,34.65
2023-04-16T02:21:02.025Z,29.33
2023-04-16T02:23:29.819Z,47.63
2023-04-16T02:25:58.788Z,48.63
2023-04-16T02:28:26.124Z,39.15
2023-04-16T02:30:53.378Z,28.88
2023-04-16T02:33:21.837Z,23.65
2023-04-16T02:36:02.051Z,25.80
2023-04-16T02:38:29.417Z,23.15
2023-04-16T02:40:56.585Z,20.17
2023-04-16T02:43:24.080Z,18.13
2023-04-16T02:45:51.461Z,28.92
2023-04-16T02:48:18.720Z,24.75
2023-04-16T02:50:45.822Z,23.42
2023-04-16T02:53:13.250Z,17.77
2023-04-16T02:55:40.464Z,16.92
2023-04-16T02:58:07.980Z,23.58
2023-04-16T03:00:35.197Z,21.75
2023-04-16T03:03:03.011Z,20.27
2023-04-16T03:05:30.361Z,19.30
2023-04-16T03:07:57.746Z,18.15
2023-04-16T03:10:25.041Z,19.73
2023-04-16T03:12:52.860Z,16.45
2023-04-16T03:15:19.990Z,15.13
2023-04-16T03:17:47.499Z,24.98
2023-04-16T03:20:17.364Z,12.27
2023-04-16T03:22:44.844Z,23.98
2023-04-16T03:25:13.580Z,22.27
2023-04-16T03:27:41.021Z,17.80
2023-04-16T03:30:10.329Z,24.15
2023-04-16T03:32:37.704Z,25.50
2023-04-16T03:35:06.867Z,22.13
2023-04-16T03:37:34.845Z,20.63
2023-04-16T03:40:02.867Z,29.50
2023-04-16T03:42:31.883Z,23.27
2023-04-16T03:44:59.723Z,30.25
2023-04-16T03:47:27.628Z,34.35
2023-04-16T03:49:58.743Z,24.60
2023-04-16T03:52:28.417Z,27.90
2023-04-16T03:54:56.348Z,37.08
2023-04-16T03:57:28.700Z,23.42
2023-04-16T04:00:01.744Z,27.35
2023-04-16T04:02:41.799Z,28.55
2023-04-16T04:05:16.829Z,31.65
2023-04-16T04:07:45.839Z,27.67
2023-04-16T04:10:14.454Z,34.28
2023-04-16T04:12:43.392Z,29.92
2023-04-16T04:15:11.996Z,34.88
2023-04-16T04:17:39.289Z,28.52
2023-04-16T04:20:07.264Z,30.67
2023-04-16T04:22:34.383Z,36.63
2023-04-16T04:25:01.986Z,28.38
2023-04-16T04:27:32.168Z,31.15
2023-04-16T04:29:59.663Z,34.78
2023-04-16T04:32:27.007Z,32.28
2023-04-16T04:34:54.482Z,30.80
2023-04-16T04:37:21.673Z,39.30
2023-04-16T04:39:49.124Z,26.27
2023-04-16T04:42:18.580Z,37.45
2023-04-16T04:44:46.435Z,41.53
2023-04-16T04:47:14.334Z,36.42
2023-04-16T04:49:41.903Z,40.85
2023-04-16T04:52:09.558Z,36.70
2023-04-16T04:54:37.607Z,31.00
2023-04-16T04:57:05.323Z,30.75
2023-04-16T04:59:32.803Z,33.45
2023-04-16T05:02:00.617Z,41.40
2023-04-16T05:04:28.084Z,41.92
2023-04-16T05:06:55.581Z,36.67
2023-04-16T05:09:22.613Z,46.85
2023-04-16T05:11:50.120Z,33.13
2023-04-16T05:14:17.325Z,31.50
2023-04-16T05:16:44.924Z,35.90
2023-04-16T05:19:12.504Z,36.75
2023-04-16T05:21:40.029Z,33.78
2023-04-16T05:24:07.167Z,29.30
2023-04-16T05:26:34.567Z,30.13
2023-04-16T05:29:01.947Z,32.08
2023-04-16T05:31:29.307Z,48.00
2023-04-16T05:33:56.622Z,35.38
2023-04-16T05:36:23.947Z,35.15
2023-04-16T05:38:51.171Z,38.55
2023-04-16T05:41:18.438Z,35.53
2023-04-16T05:43:45.822Z,43.50
2023-04-16T05:46:13.248Z,32.17
2023-04-16T05:48:40.325Z,35.38
2023-04-16T05:51:07.748Z,27.95
2023-04-16T05:53:35.023Z,34.90
2023-04-16T05:56:02.470Z,39.92
2023-04-16T05:58:29.717Z,34.22
2023-04-16T06:00:57.244Z,41.47
2023-04-16T06:03:24.736Z,49.10
2023-04-16T06:05:52.470Z,48.08
2023-04-16T06:08:19.971Z,50.25
2023-04-16T06:10:47.822Z,43.85
2023-04-16T06:13:15.227Z,43.15
2023-04-16T06:15:42.494Z,40.72
2023-04-16T06:18:10.096Z,55.38
2023-04-16T06:20:37.441Z,33.60
2023-04-16T06:23:04.788Z,39.03
2023-04-16T06:25:32.049Z,36.30
2023-04-16T06:27:59.031Z,32.38
2023-04-16T06:30:26.003Z,38.92
2023-04-16T06:32:54.097Z,48.42
2023-04-16T06:35:21.446Z,39.97
2023-04-16T06:37:48.803Z,33.85
2023-04-16T06:40:16.165Z,32.80
2023-04-16T06:42:45.323Z,40.72
2023-04-16T06:45:13.570Z,36.95
2023-04-16T06:47:41.147Z,33.00
2023-04-16T06:50:08.839Z,38.30
2023-04-16T06:52:36.620Z,39.45
2023-04-16T06:55:04.121Z,34.45
2023-04-16T06:57:31.568Z,38.28
2023-04-16T06:59:58.865Z,27.38
2023-04-16T07:02:26.667Z,37.72
2023-04-16T07:04:54.221Z,37.10
2023-04-16T07:07:21.901Z,35.53
2023-04-16T07:09:49.142Z,39.33
2023-04-16T07:12:16.246Z,27.60
2023-04-16T07:14:43.489Z,31.23
2023-04-16T07:17:10.684Z,29.05
2023-04-16T07:19:38.185Z,28.08
2023-04-16T07:22:05.585Z,38.67
2023-04-16T07:24:33.098Z,23.80
2023-04-16T07:27:00.506Z,34.05
2023-04-16T07:29:27.802Z,26.63
2023-04-16T07:31:55.331Z,26.30
2023-04-16T07:34:22.732Z,33.13
2023-04-16T07:36:50.030Z,30.52
2023-04-16T07:39:17.584Z,29.02
2023-04-16T07:41:44.948Z,29.05
2023-04-16T07:44:12.325Z,32.97
2023-04-16T07:46:46.853Z,31.85
2023-04-16T07:49:15.196Z,32.88
2023-04-16T07:51:42.572Z,33.80
2023-04-16T07:54:11.060Z,26.20
2023-04-16T07:56:38.381Z,29.75
2023-04-16T07:59:21.085Z,26.60
2023-04-16T08:01:50.165Z,26.65
2023-04-16T08:04:23.465Z,29.25
2023-04-16T08:06:51.892Z,32.65
2023-04-16T08:09:23.823Z,32.75
2023-04-16T08:11:51.305Z,29.60
2023-04-16T08:14:18.683Z,34.50
2023-04-16T08:16:46.540Z,32.33
2023-04-16T08:19:14.170Z,31.13
2023-04-16T08:21:41.526Z,33.13
2023-04-16T08:24:08.803Z,31.85
2023-04-16T08:26:36.305Z,36.78
2023-04-16T08:29:03.568Z,40.03
2023-04-16T08:31:31.103Z,27.88
2023-04-16T08:33:58.588Z,31.85
2023-04-16T08:36:25.766Z,39.15
2023-04-16T08:38:52.503Z,33.70
2023-04-16T08:41:22.083Z,38.17
2023-04-16T08:43:51.203Z,39.22
2023-04-16T08:46:19.913Z,43.60
2023-04-16T08:48:49.662Z,42.53
2023-04-16T08:51:17.490Z,44.35
2023-04-16T08:53:49.737Z,37.45
2023-04-16T08:56:23.537Z,33.17
2023-04-16T08:58:51.516Z,29.10
2023-04-16T09:01:19.201Z,38.22
2023-04-16T09:03:48.777Z,30.02
2023-04-16T09:06:19.077Z,31.35
2023-04-16T09:08:48.756Z,27.73
2023-04-16T09:11:18.309Z,27.27
2023-04-16T09:13:46.442Z,27.88
2023-04-16T09:16:14.168Z,26.70
2023-04-16T09:18:41.450Z,28.52
2023-04-16T09:21:10.896Z,28.10
2023-04-16T09:23:38.989Z,32.08
2023-04-16T09:26:06.289Z,28.77
2023-04-16T09:28:39.609Z,34.15
2023-04-16T09:31:14.727Z,28.05
2023-04-16T09:33:43.237Z,40.70
2023-04-16T09:36:11.474Z,27.80
2023-04-16T09:38:48.735Z,30.77
2023-04-16T09:41:16.904Z,32.65
2023-04-16T09:44:02.596Z,33.10
2023-04-16T09:46:36.596Z,34.90
2023-04-16T09:49:11.349Z,32.28
2023-04-16T09:51:41.910Z,32.97
2023-04-16T09:54:09.816Z,34.22
2023-04-16T09:56:43.728Z,32.58
2023-04-16T09:59:21.376Z,36.28
2023-04-16T10:02:14.354Z,27.35
2023-04-16T10:04:51.956Z,31.45
2023-04-16T10:07:20.089Z,40.55
2023-04-16T10:09:53.190Z,31.33
2023-04-16T10:12:21.117Z,36.28
2023-04-16T10:14:50.075Z,36.17
2023-04-16T10:17:18.169Z,37.17
2023-04-16T10:19:46.053Z,36.47
2023-04-16T10:22:14.140Z,156.65
2023-04-16T10:24:41.673Z,35.53
2023-04-16T10:27:09.029Z,37.22
2023-04-16T10:29:37.089Z,40.30
2023-04-16T10:32:04.678Z,35.97
2023-04-16T10:34:31.931Z,32.83
2023-04-16T10:36:59.518Z,30.23
2023-04-16T10:39:29.974Z,31.17
2023-04-16T10:42:12.999Z,28.02
2023-04-16T10:44:45.439Z,44.35
2023-04-16T10:47:14.294Z,32.80
2023-04-16T10:49:42.866Z,57.10
2023-04-16T10:52:19.226Z,28.75
2023-04-16T10:55:08.617Z,29.40
2023-04-16T10:57:36.358Z,28.02
2023-04-16T11:00:04.442Z,33.22
2023-04-16T11:02:32.007Z,27.23
2023-04-16T11:05:02.457Z,32.78
2023-04-16T11:07:35.144Z,30.75
2023-04-16T11:10:07.563Z,35.40
2023-04-16T11:12:34.907Z,26.27
2023-04-16T11:15:11.060Z,30.40
2023-04-16T11:17:51.995Z,32.35
2023-04-16T11:20:25.946Z,26.33
2023-04-16T11:22:55.762Z,29.33
2023-04-16T11:25:25.322Z,29.75
2023-04-16T11:27:53.582Z,45.08
2023-04-16T11:30:30.435Z,34.80
2023-04-16T11:32:58.155Z,30.70
2023-04-16T11:35:25.786Z,31.80
2023-04-16T11:37:56.421Z,33.70
2023-04-16T11:40:23.534Z,26.10
2023-04-16T11:42:50.287Z,31.60
2023-04-16T11:45:19.447Z,36.97
2023-04-16T11:47:51.770Z,33.55
2023-04-16T11:52:49.934Z,33.92
2023-04-16T11:55:16.765Z,37.35
2023-04-16T11:57:43.897Z,36.47
2023-04-16T12:00:13.776Z,38.15
2023-04-16T12:03:01.763Z,32.10
2023-04-16T12:05:31.937Z,40.70
2023-04-16T12:08:00.002Z,32.70
2023-04-16T12:10:27.800Z,35.78
2023-04-16T12:12:54.586Z,37.70
2023-04-16T12:15:21.499Z,44.38
2023-04-16T12:17:48.822Z,36.45
2023-04-16T12:20:16.300Z,50.97
2023-04-16T12:22:49.426Z,40.17
2023-04-16T12:25:17.897Z,44.92
2023-04-16T12:27:53.388Z,50.67
2023-04-16T12:30:22.956Z,37.67
2023-04-16T12:32:51.899Z,37.08
2023-04-16T12:35:34.347Z,34.45
2023-04-16T12:38:01.616Z,33.95
2023-04-16T12:40:28.506Z,34.33
2023-04-16T12:42:55.804Z,30.63
2023-04-16T12:45:22.907Z,30.88
2023-04-16T12:47:50.626Z,34.92
2023-04-16T12:50:18.101Z,38.20
2023-04-16T12:52:45.047Z,46.65
2023-04-16T12:55:14.213Z,38.33
2023-04-16T12:57:41.381Z,33.65
2023-04-16T13:00:10.955Z,34.70
2023-04-16T13:02:38.398Z,35.75
2023-04-16T13:05:06.225Z,34.65
2023-04-16T13:07:34.298Z,34.75
2023-04-16T13:10:01.782Z,39.33
2023-04-16T13:12:29.138Z,33.90
2023-04-16T13:14:56.449Z,37.95
2023-04-16T13:17:23.773Z,35.20
2023-04-16T13:19:51.330Z,32.67
2023-04-16T13:22:18.581Z,36.00
2023-04-16T13:24:46.251Z,33.13
2023-04-16T13:27:16.226Z,34.13
2023-04-16T13:29:43.606Z,27.50
2023-04-16T13:32:14.114Z,34.35
2023-04-16T13:34:41.225Z,36.22
2023-04-16T13:37:08.512Z,32.92
2023-04-16T13:39:35.822Z,33.13
2023-04-16T13:42:03.200Z,28.00
2023-04-16T13:44:30.816Z,30.98
2023-04-16T13:46:58.425Z,24.23
2023-04-16T13:49:26.021Z,34.42
2023-04-16T13:51:53.258Z,30.67
2023-04-16T13:54:20.775Z,34.00
2023-04-16T13:56:47.862Z,32.15
2023-04-16T13:59:16.884Z,32.65
2023-04-16T14:01:44.209Z,30.95
2023-04-16T14:04:11.751Z,30.98
2023-04-16T14:06:38.812Z,37.10
2023-04-16T14:09:05.659Z,45.15
2023-04-16T14:11:32.383Z,29.83
2023-04-16T14:13:59.190Z,34.75
2023-04-16T14:16:26.509Z,32.10
2023-04-16T14:18:53.459Z,41.78
2023-04-16T14:21:20.176Z,34.47
2023-04-16T14:23:47.161Z,46.20
2023-04-16T14:26:14.471Z,39.92
2023-04-16T14:28:41.692Z,39.28
2023-04-16T14:31:08.619Z,42.95
2023-04-16T14:33:35.482Z,41.95
2023-04-16T14:36:03.347Z,44.33
2023-04-16T14:38:31.346Z,33.53
2023-04-16T14:41:00.575Z,54.22
2023-04-16T14:43:27.690Z,42.97
2023-04-16T14:45:54.539Z,41.45
2023-04-16T14:48:22.228Z,51.25
2023-04-16T14:50:49.002Z,42.53
2023-04-16T14:53:16.082Z,48.25
2023-04-16T14:55:42.836Z,45.72
2023-04-16T14:58:10.860Z,44.60
2023-04-16T15:00:37.766Z,52.22
2023-04-16T15:03:05.882Z,42.60
2023-04-16T15:05:33.084Z,58.03
2023-04-16T15:08:00.796Z,35.65
2023-04-16T15:10:27.938Z,53.05
2023-04-16T15:12:54.948Z,53.50
2023-04-16T15:15:21.981Z,47.42
2023-04-16T15:17:50.475Z,39.40
2023-04-16T15:20:17.425Z,33.20
2023-04-16T15:22:44.241Z,40.22
2023-04-16T15:25:11.141Z,38.83
2023-04-16T15:27:38.051Z,62.70
2023-04-16T15:30:05.310Z,46.10
2023-04-16T15:32:32.004Z,42.97
2023-04-16T15:34:59.990Z,41.13
2023-04-16T15:37:27.073Z,38.72
2023-04-16T15:39:53.954Z,41.83
2023-04-16T15:42:21.128Z,37.67
2023-04-16T15:44:47.897Z,43.20
2023-04-16T15:47:14.668Z,55.58
2023-04-16T15:49:42.270Z,50.83
2023-04-16T15:52:09.973Z,41.33
2023-04-16T15:54:37.765Z,41.60
2023-04-16T15:57:04.979Z,68.82
2023-04-16T15:59:32.994Z,44.38
2023-04-16T16:02:01.114Z,38.70
2023-04-16T16:04:28.752Z,40.17
2023-04-16T16:06:56.740Z,44.25
2023-04-16T16:09:27.093Z,44.53
2023-04-16T16:11:55.772Z,42.85
2023-04-16T16:14:23.135Z,45.88
2023-04-16T16:16:50.986Z,51.05
2023-04-16T16:19:18.333Z,45.35
2023-04-16T16:21:45.605Z,86.47
2023-04-16T16:24:14.198Z,49.10
2023-04-16T16:26:41.840Z,58.33
2023-04-16T16:29:09.661Z,112.70
2023-04-16T16:31:37.351Z,68.97
2023-04-16T16:34:04.760Z,52.63
2023-04-16T16:36:36.896Z,73.97
2023-04-16T16:39:05.170Z,87.75
2023-04-16T16:41:32.668Z,50.50
2023-04-16T16:44:00.134Z,62.05
2023-04-16T16:46:27.386Z,53.90
2023-04-16T16:48:54.793Z,55.13
2023-04-16T16:51:22.306Z,55.53
2023-04-16T16:53:49.465Z,62.17
2023-04-16T16:56:16.982Z,56.08
2023-04-16T16:58:44.232Z,57.72
2023-04-16T17:01:11.641Z,57.97
2023-04-16T17:03:39.019Z,60.90
2023-04-16T17:06:06.919Z,71.78
2023-04-16T17:08:34.351Z,64.07
2023-04-16T17:11:05.111Z,55.10
2023-04-16T17:13:33.014Z,56.55
2023-04-16T17:16:01.393Z,48.15
2023-04-16T17:18:28.774Z,56.28
2023-04-16T17:20:56.235Z,48.22
2023-04-16T17:23:24.138Z,48.30
2023-04-16T17:25:51.571Z,55.15
2023-04-16T17:28:19.145Z,60.55
2023-04-16T17:30:50.566Z,51.03
2023-04-16T17:33:19.702Z,63.38
2023-04-16T17:35:47.237Z,56.20
2023-04-16T17:38:14.897Z,46.22
2023-04-16T17:40:43.095Z,49.17
2023-04-16T17:43:10.591Z,49.50
2023-04-16T17:45:37.837Z,54.38
2023-04-16T17:48:05.652Z,58.88
2023-04-16T17:50:32.802Z,46.72
2023-04-16T17:53:03.713Z,75.85
2023-04-16T17:55:31.584Z,44.75
2023-04-16T17:57:58.974Z,55.55
2023-04-16T18:00:26.481Z,67.22
2023-04-16T18:02:54.539Z,55.67
2023-04-16T18:05:22.265Z,52.10
2023-04-16T18:07:50.802Z,53.33
2023-04-16T18:10:18.125Z,53.78
2023-04-16T18:12:46.639Z,44.45
2023-04-16T18:15:13.688Z,50.17
2023-04-16T18:17:41.055Z,49.83
2023-04-16T18:20:09.559Z,54.72
2023-04-16T18:22:36.672Z,52.08
2023-04-16T18:25:04.418Z,48.97
2023-04-16T18:27:32.160Z,62.88
2023-04-16T18:29:59.715Z,53.47
2023-04-16T18:32:30.809Z,48.30
2023-04-16T18:35:00.262Z,50.47
2023-04-16T18:37:27.324Z,53.10
2023-04-16T18:39:57.896Z,61.80
2023-04-16T18:42:28.329Z,67.03
2023-04-16T18:44:55.709Z,61.20
2023-04-16T18:47:22.835Z,53.72
2023-04-16T18:49:50.179Z,60.25
2023-04-16T18:52:17.491Z,66.80
2023-04-16T18:54:45.130Z,60.25
2023-04-16T18:57:12.214Z,63.25
2023-04-16T18:59:39.649Z,65.28
2023-04-16T19:02:07.520Z,55.95
2023-04-16T19:04:35.172Z,57.80
2023-04-16T19:07:02.508Z,67.70
2023-04-16T19:09:29.758Z,64.07
2023-04-16T19:11:57.837Z,66.10
2023-04-16T19:14:25.031Z,66.53
2023-04-16T19:16:52.276Z,69.90
2023-04-16T19:19:19.572Z,63.63
2023-04-16T19:21:47.985Z,56.20
2023-04-16T19:24:16.445Z,69.15
2023-04-16T19:26:43.872Z,68.45
2023-04-16T19:29:11.372Z,81.63
2023-04-16T19:31:39.239Z,74.68
2023-04-16T19:34:06.700Z,73.88
2023-04-16T19:36:34.109Z,78.35
2023-04-16T19:39:01.603Z,66.53
2023-04-16T19:41:29.210Z,63.00
2023-04-16T19:43:56.555Z,76.97
2023-04-16T19:46:24.213Z,62.13
2023-04-16T19:48:51.974Z,63.78
2023-04-16T19:51:19.393Z,72.43
2023-04-16T19:53:46.816Z,63.20
2023-04-16T19:56:16.260Z,69.53
2023-04-16T19:58:43.618Z,66.07
2023-04-16T20:01:11.508Z,65.10
2023-04-16T20:03:39.186Z,77.25
2023-04-16T20:06:07.177Z,74.57
2023-04-16T20:08:35.175Z,68.47
2023-04-16T20:11:02.404Z,63.72
2023-04-16T20:13:29.436Z,64.97
2023-04-16T20:15:57.080Z,64.70
2023-04-16T20:18:25.991Z,68.30
2023-04-16T20:20:54.313Z,72.47
2023-04-16T20:23:21.479Z,61.45
2023-04-16T20:25:49.447Z,66.05
2023-04-16T20:28:18.278Z,59.10
2023-04-16T20:30:45.915Z,61.53
2023-04-16T20:33:13.162Z,61.80
2023-04-16T20:35:40.375Z,56.30
2023-04-16T20:38:07.746Z,61.03
2023-04-16T20:40:38.306Z,64.80
2023-04-16T20:43:10.431Z,61.88
2023-04-16T20:45:41.294Z,60.47
2023-04-16T20:48:08.630Z,56.55
2023-04-16T20:50:36.321Z,58.67
2023-04-16T20:53:03.798Z,53.75
2023-04-16T20:55:31.219Z,62.55
2023-04-16T20:57:58.577Z,63.72
2023-04-16T21:00:26.049Z,61.22
2023-04-16T21:02:53.623Z,57.78
2023-04-16T21:05:21.609Z,65.95
2023-04-16T21:07:48.906Z,66.68
2023-04-16T21:10:20.507Z,58.60
2023-04-16T21:12:47.987Z,60.88
2023-04-16T21:15:15.283Z,60.72
2023-04-16T21:17:42.669Z,64.72
2023-04-16T21:20:13.871Z,57.50
2023-04-16T21:22:41.394Z,68.03
2023-04-16T21:25:09.173Z,64.57
2023-04-16T21:27:36.772Z,70.38
2023-04-16T21:30:04.301Z,67.45
2023-04-16T21:32:31.655Z,64.50
2023-04-16T21:34:58.994Z,66.72
2023-04-16T21:37:26.710Z,67.97
2023-04-16T21:39:54.153Z,78.78
2023-04-16T21:42:21.727Z,74.47
2023-04-16T21:44:49.265Z,58.83
2023-04-16T21:47:16.704Z,60.80
2023-04-16T21:49:44.332Z,74.97
2023-04-16T21:52:14.425Z,66.30
2023-04-16T21:54:41.896Z,74.82
2023-04-16T21:57:09.127Z,68.75
2023-04-16T21:59:36.353Z,78.82
2023-04-16T22:02:04.496Z,80.47
2023-04-16T22:04:38.720Z,78.60
2023-04-16T22:07:09.043Z,85.72
2023-04-16T22:09:41.253Z,78.00
2023-04-16T22:12:12.360Z,68.93
2023-04-16T22:14:46.190Z,74.63
2023-04-16T22:17:24.168Z,79.28
2023-04-16T22:19:53.709Z,85.20
2023-04-16T22:22:21.963Z,98.75
2023-04-16T22:24:49.424Z,100.63
2023-04-16T22:27:16.750Z,103.15
2023-04-16T22:29:44.198Z,92.15
2023-04-16T22:32:12.541Z,98.32
2023-04-16T22:34:39.930Z,95.15
2023-04-16T22:37:08.350Z,100.38
2023-04-16T22:39:35.907Z,103.25
2023-04-16T22:42:03.199Z,95.60
2023-04-16T22:44:30.798Z,96.03
2023-04-16T22:46:58.301Z,99.25
2023-04-16T22:49:26.838Z,106.38
2023-04-16T22:51:54.177Z,102.00
2023-04-16T22:54:21.850Z,104.30
2023-04-16T22:56:50.191Z,105.30
2023-04-16T22:59:17.670Z,103.88
2023-04-16T23:01:45.071Z,109.18
2023-04-16T23:04:12.790Z,107.35
2023-04-16T23:06:41.029Z,116.40
2023-04-16T23:09:09.241Z,102.90
2023-04-16T23:11:36.751Z,121.95
2023-04-16T23:14:05.312Z,103.70
2023-04-16T23:16:32.401Z,110.80
2023-04-16T23:18:59.727Z,112.28
2023-04-16T23:21:27.200Z,107.25
2023-04-16T23:23:54.551Z,100.13
2023-04-16T23:26:21.987Z,91.35
2023-04-16T23:28:49.349Z,85.53
2023-04-16T23:31:16.891Z,99.65
2023-04-16T23:33:44.019Z,112.70
2023-04-16T23:36:11.323Z,117.05
2023-04-16T23:38:38.719Z,120.82
2023-04-16T23:41:05.950Z,113.15
2023-04-16T23:43:33.351Z,108.93
2023-04-16T23:46:01.355Z,107.07
2023-04-16T23:48:29.190Z,113.15
2023-04-16T23:50:56.850Z,114.53
2023-04-16T23:53:24.289Z,118.18
2023-04-16T23:55:52.163Z,95.03
2023-04-16T23:58:19.451Z,97.38
